Rosholt, Wisconsin
Current Conditions -  °F | °C
As of 3:15 AM on Wednesday 22 Oct 2014 (Local Time) from KSTE Reporting Station
Clear Clear  
Wind Chill: 26°   Ceiling: Unl
Heat Index: 26°   Visibility: 10mi
Dew Point: 24°   Wind: 0mph
Humidity: 95%   Direction: NA
Pressure: 30.31"   Gusts: NA
Location:  44.63°N, 89.31°W
Report Text: KSTE 220815Z AUTO 00000KT 10SM CLR M04/M04 A3031 RMK AO2 T10361043
Loading
Personal Weather Stations






























Interactive Weather Map
Tropical Storm Tracking
New forecast layout! Learn more

10-Day Weather Forecast

Advertisements
Track Severe Weather on mobile